sensor_id;sensor_type;location;lat;lon;timestamp;P1;durP1;ratioP1;P2;durP2;ratioP2
32639;SDS011;19049;52.524;11.468;2022-11-20T00:00:53;10.90;;;7.43;;
32639;SDS011;19049;52.524;11.468;2022-11-20T00:03:22;10.80;;;7.40;;
32639;SDS011;19049;52.524;11.468;2022-11-20T00:05:48;11.07;;;7.73;;
32639;SDS011;19049;52.524;11.468;2022-11-20T00:08:13;9.87;;;7.00;;
32639;SDS011;19049;52.524;11.468;2022-11-20T00:10:41;14.03;;;8.60;;
32639;SDS011;19049;52.524;11.468;2022-11-20T00:13:07;12.77;;;7.83;;
32639;SDS011;19049;52.524;11.468;2022-11-20T00:15:35;12.13;;;7.73;;
32639;SDS011;19049;52.524;11.468;2022-11-20T00:18:01;14.97;;;8.83;;
32639;SDS011;19049;52.524;11.468;2022-11-20T00:20:27;11.07;;;7.77;;
32639;SDS011;19049;52.524;11.468;2022-11-20T00:22:53;12.17;;;7.30;;
32639;SDS011;19049;52.524;11.468;2022-11-20T00:25:18;13.23;;;9.00;;
32639;SDS011;19049;52.524;11.468;2022-11-20T00:27:44;11.10;;;7.87;;
32639;SDS011;19049;52.524;11.468;2022-11-20T00:30:10;14.93;;;9.07;;
32639;SDS011;19049;52.524;11.468;2022-11-20T00:32:36;12.70;;;9.10;;
32639;SDS011;19049;52.524;11.468;2022-11-20T00:35:02;13.63;;;8.47;;
32639;SDS011;19049;52.524;11.468;2022-11-20T00:37:28;13.20;;;8.60;;
32639;SDS011;19049;52.524;11.468;2022-11-20T00:39:54;14.03;;;9.20;;
32639;SDS011;19049;52.524;11.468;2022-11-20T00:42:19;10.80;;;7.83;;
32639;SDS011;19049;52.524;11.468;2022-11-20T00:44:45;9.63;;;7.10;;
32639;SDS011;19049;52.524;11.468;2022-11-20T00:47:11;12.03;;;7.93;;
32639;SDS011;19049;52.524;11.468;2022-11-20T00:49:38;12.33;;;8.10;;
32639;SDS011;19049;52.524;11.468;2022-11-20T00:52:04;12.27;;;8.50;;
32639;SDS011;19049;52.524;11.468;2022-11-20T00:54:30;9.23;;;7.00;;
32639;SDS011;19049;52.524;11.468;2022-11-20T00:56:55;9.80;;;6.03;;
32639;SDS011;19049;52.524;11.468;2022-11-20T00:59:21;13.37;;;7.67;;
32639;SDS011;19049;52.524;11.468;2022-11-20T01:01:47;12.70;;;8.00;;
32639;SDS011;19049;52.524;11.468;2022-11-20T01:04:15;11.33;;;7.47;;
32639;SDS011;19049;52.524;11.468;2022-11-20T01:06:41;12.40;;;7.90;;
32639;SDS011;19049;52.524;11.468;2022-11-20T01:09:11;10.67;;;7.57;;
32639;SDS011;19049;52.524;11.468;2022-11-20T01:11:39;9.90;;;6.83;;
32639;SDS011;19049;52.524;11.468;2022-11-20T01:14:10;10.30;;;7.30;;
32639;SDS011;19049;52.524;11.468;2022-11-20T01:16:43;11.87;;;7.50;;
32639;SDS011;19049;52.524;11.468;2022-11-20T01:19:15;11.03;;;7.30;;
32639;SDS011;19049;52.524;11.468;2022-11-20T01:21:48;12.23;;;7.37;;
32639;SDS011;19049;52.524;11.468;2022-11-20T01:24:17;11.87;;;8.00;;
32639;SDS011;19049;52.524;11.468;2022-11-20T01:26:45;12.97;;;7.33;;
32639;SDS011;19049;52.524;11.468;2022-11-20T01:29:14;11.37;;;7.80;;
32639;SDS011;19049;52.524;11.468;2022-11-20T01:31:41;14.87;;;9.00;;
32639;SDS011;19049;52.524;11.468;2022-11-20T01:34:13;14.70;;;9.17;;
32639;SDS011;19049;52.524;11.468;2022-11-20T01:36:41;11.47;;;8.20;;
32639;SDS011;19049;52.524;11.468;2022-11-20T01:39:10;12.30;;;8.27;;
32639;SDS011;19049;52.524;11.468;2022-11-20T01:41:39;11.93;;;7.80;;
32639;SDS011;19049;52.524;11.468;2022-11-20T01:44:43;11.40;;;7.27;;
32639;SDS011;19049;52.524;11.468;2022-11-20T01:47:11;12.67;;;8.40;;
32639;SDS011;19049;52.524;11.468;2022-11-20T01:49:43;12.43;;;8.77;;
32639;SDS011;19049;52.524;11.468;2022-11-20T01:52:20;12.87;;;8.03;;
32639;SDS011;19049;52.524;11.468;2022-11-20T01:55:00;13.50;;;9.03;;
32639;SDS011;19049;52.524;11.468;2022-11-20T01:57:32;15.00;;;9.87;;
32639;SDS011;19049;52.524;11.468;2022-11-20T02:00:02;15.57;;;10.20;;
32639;SDS011;19049;52.524;11.468;2022-11-20T02:02:30;15.93;;;10.60;;
32639;SDS011;19049;52.524;11.468;2022-11-20T02:04:57;12.73;;;8.40;;
32639;SDS011;19049;52.524;11.468;2022-11-20T02:07:29;11.00;;;7.73;;
32639;SDS011;19049;52.524;11.468;2022-11-20T02:09:55;10.60;;;8.03;;
32639;SDS011;19049;52.524;11.468;2022-11-20T02:12:21;16.53;;;9.97;;
32639;SDS011;19049;52.524;11.468;2022-11-20T02:15:10;16.70;;;10.37;;
32639;SDS011;19049;52.524;11.468;2022-11-20T02:17:36;14.83;;;9.50;;
32639;SDS011;19049;52.524;11.468;2022-11-20T02:20:03;12.73;;;8.07;;
32639;SDS011;19049;52.524;11.468;2022-11-20T02:22:31;13.00;;;9.10;;
32639;SDS011;19049;52.524;11.468;2022-11-20T02:25:23;14.50;;;9.90;;
32639;SDS011;19049;52.524;11.468;2022-11-20T02:27:55;17.93;;;11.43;;
32639;SDS011;19049;52.524;11.468;2022-11-20T02:30:21;16.00;;;10.70;;
32639;SDS011;19049;52.524;11.468;2022-11-20T02:32:47;18.03;;;10.97;;
32639;SDS011;19049;52.524;11.468;2022-11-20T02:37:44;14.37;;;9.60;;
32639;SDS011;19049;52.524;11.468;2022-11-20T02:40:12;17.30;;;10.00;;
32639;SDS011;19049;52.524;11.468;2022-11-20T02:42:38;14.97;;;9.50;;
32639;SDS011;19049;52.524;11.468;2022-11-20T02:45:04;15.27;;;9.90;;
32639;SDS011;19049;52.524;11.468;2022-11-20T02:47:33;18.70;;;11.00;;
32639;SDS011;19049;52.524;11.468;2022-11-20T02:49:59;17.57;;;11.60;;
32639;SDS011;19049;52.524;11.468;2022-11-20T02:52:25;15.10;;;10.20;;
32639;SDS011;19049;52.524;11.468;2022-11-20T02:54:51;15.07;;;9.23;;
32639;SDS011;19049;52.524;11.468;2022-11-20T02:57:17;16.13;;;9.97;;
32639;SDS011;19049;52.524;11.468;2022-11-20T02:59:43;14.13;;;9.00;;
32639;SDS011;19049;52.524;11.468;2022-11-20T03:02:09;13.30;;;8.80;;
32639;SDS011;19049;52.524;11.468;2022-11-20T03:04:36;14.10;;;8.17;;
32639;SDS011;19049;52.524;11.468;2022-11-20T03:07:02;17.10;;;10.80;;
32639;SDS011;19049;52.524;11.468;2022-11-20T03:09:28;14.77;;;9.07;;
32639;SDS011;19049;52.524;11.468;2022-11-20T03:11:54;13.90;;;9.27;;
32639;SDS011;19049;52.524;11.468;2022-11-20T03:14:20;12.10;;;7.87;;
32639;SDS011;19049;52.524;11.468;2022-11-20T03:16:46;12.77;;;8.30;;
32639;SDS011;19049;52.524;11.468;2022-11-20T03:19:11;14.93;;;10.03;;
32639;SDS011;19049;52.524;11.468;2022-11-20T03:21:38;14.47;;;9.97;;
32639;SDS011;19049;52.524;11.468;2022-11-20T03:24:04;13.00;;;8.50;;
32639;SDS011;19049;52.524;11.468;2022-11-20T03:26:30;16.43;;;10.17;;
32639;SDS011;19049;52.524;11.468;2022-11-20T03:28:59;14.60;;;9.23;;
32639;SDS011;19049;52.524;11.468;2022-11-20T03:31:27;13.17;;;8.47;;
32639;SDS011;19049;52.524;11.468;2022-11-20T03:33:55;14.70;;;9.30;;
32639;SDS011;19049;52.524;11.468;2022-11-20T03:36:25;14.00;;;9.27;;
32639;SDS011;19049;52.524;11.468;2022-11-20T03:38:52;12.67;;;8.23;;
32639;SDS011;19049;52.524;11.468;2022-11-20T03:41:20;11.47;;;8.40;;
32639;SDS011;19049;52.524;11.468;2022-11-20T03:46:26;12.73;;;8.63;;
32639;SDS011;19049;52.524;11.468;2022-11-20T03:48:53;13.20;;;8.77;;
32639;SDS011;19049;52.524;11.468;2022-11-20T03:51:19;16.43;;;10.20;;
32639;SDS011;19049;52.524;11.468;2022-11-20T03:53:47;19.10;;;11.67;;
32639;SDS011;19049;52.524;11.468;2022-11-20T03:56:14;13.57;;;9.10;;
32639;SDS011;19049;52.524;11.468;2022-11-20T03:58:41;14.10;;;9.33;;
32639;SDS011;19049;52.524;11.468;2022-11-20T04:03:38;14.17;;;8.93;;
32639;SDS011;19049;52.524;11.468;2022-11-20T04:06:05;14.73;;;9.13;;
32639;SDS011;19049;52.524;11.468;2022-11-20T04:08:35;13.43;;;8.77;;
32639;SDS011;19049;52.524;11.468;2022-11-20T04:13:50;11.97;;;8.57;;
32639;SDS011;19049;52.524;11.468;2022-11-20T04:16:20;10.70;;;7.93;;
32639;SDS011;19049;52.524;11.468;2022-11-20T04:18:54;11.53;;;7.50;;
32639;SDS011;19049;52.524;11.468;2022-11-20T04:21:21;11.37;;;6.57;;
32639;SDS011;19049;52.524;11.468;2022-11-20T04:23:48;11.47;;;6.67;;
32639;SDS011;19049;52.524;11.468;2022-11-20T04:26:14;9.67;;;6.50;;
32639;SDS011;19049;52.524;11.468;2022-11-20T04:28:40;9.90;;;6.43;;
32639;SDS011;19049;52.524;11.468;2022-11-20T04:31:07;9.17;;;5.83;;
32639;SDS011;19049;52.524;11.468;2022-11-20T04:33:36;7.57;;;5.87;;
32639;SDS011;19049;52.524;11.468;2022-11-20T04:36:03;9.40;;;6.00;;
32639;SDS011;19049;52.524;11.468;2022-11-20T04:38:33;8.23;;;6.00;;
32639;SDS011;19049;52.524;11.468;2022-11-20T04:40:59;12.30;;;6.63;;
32639;SDS011;19049;52.524;11.468;2022-11-20T04:43:28;8.60;;;5.83;;
32639;SDS011;19049;52.524;11.468;2022-11-20T04:45:54;10.50;;;6.90;;
32639;SDS011;19049;52.524;11.468;2022-11-20T04:48:26;10.83;;;7.70;;
32639;SDS011;19049;52.524;11.468;2022-11-20T04:50:53;9.27;;;6.63;;
32639;SDS011;19049;52.524;11.468;2022-11-20T04:53:19;9.53;;;6.60;;
32639;SDS011;19049;52.524;11.468;2022-11-20T04:55:48;11.00;;;6.87;;
32639;SDS011;19049;52.524;11.468;2022-11-20T04:58:14;10.23;;;6.67;;
32639;SDS011;19049;52.524;11.468;2022-11-20T05:00:41;8.13;;;5.90;;
32639;SDS011;19049;52.524;11.468;2022-11-20T05:03:06;11.80;;;7.50;;
32639;SDS011;19049;52.524;11.468;2022-11-20T05:05:35;9.67;;;6.50;;
32639;SDS011;19049;52.524;11.468;2022-11-20T05:08:01;8.53;;;6.30;;
32639;SDS011;19049;52.524;11.468;2022-11-20T05:10:27;10.17;;;7.10;;
32639;SDS011;19049;52.524;11.468;2022-11-20T05:12:53;9.73;;;6.67;;
32639;SDS011;19049;52.524;11.468;2022-11-20T05:15:18;12.40;;;7.43;;
32639;SDS011;19049;52.524;11.468;2022-11-20T05:17:51;9.03;;;6.83;;
32639;SDS011;19049;52.524;11.468;2022-11-20T05:20:17;9.63;;;6.57;;
32639;SDS011;19049;52.524;11.468;2022-11-20T05:22:44;8.83;;;6.30;;
32639;SDS011;19049;52.524;11.468;2022-11-20T05:25:11;8.67;;;5.87;;
32639;SDS011;19049;52.524;11.468;2022-11-20T05:27:38;8.33;;;6.17;;
32639;SDS011;19049;52.524;11.468;2022-11-20T05:30:04;8.67;;;5.87;;
32639;SDS011;19049;52.524;11.468;2022-11-20T05:32:30;10.07;;;6.47;;
32639;SDS011;19049;52.524;11.468;2022-11-20T05:34:56;9.03;;;6.37;;
32639;SDS011;19049;52.524;11.468;2022-11-20T05:37:22;9.97;;;7.70;;
32639;SDS011;19049;52.524;11.468;2022-11-20T05:39:47;10.43;;;6.77;;
32639;SDS011;19049;52.524;11.468;2022-11-20T05:42:13;9.03;;;6.73;;
32639;SDS011;19049;52.524;11.468;2022-11-20T05:45:00;10.47;;;6.07;;
32639;SDS011;19049;52.524;11.468;2022-11-20T05:47:28;12.47;;;7.73;;
32639;SDS011;19049;52.524;11.468;2022-11-20T05:49:57;10.03;;;7.17;;
32639;SDS011;19049;52.524;11.468;2022-11-20T05:52:23;10.13;;;6.37;;
32639;SDS011;19049;52.524;11.468;2022-11-20T05:54:48;9.47;;;6.73;;
32639;SDS011;19049;52.524;11.468;2022-11-20T05:57:14;9.17;;;6.67;;
32639;SDS011;19049;52.524;11.468;2022-11-20T05:59:40;8.40;;;6.53;;
32639;SDS011;19049;52.524;11.468;2022-11-20T06:02:06;8.73;;;6.53;;
32639;SDS011;19049;52.524;11.468;2022-11-20T06:04:31;10.03;;;6.70;;
32639;SDS011;19049;52.524;11.468;2022-11-20T06:06:57;10.30;;;6.80;;
32639;SDS011;19049;52.524;11.468;2022-11-20T06:09:23;9.93;;;7.00;;
32639;SDS011;19049;52.524;11.468;2022-11-20T06:11:48;10.37;;;6.80;;
32639;SDS011;19049;52.524;11.468;2022-11-20T06:14:14;10.57;;;7.57;;
32639;SDS011;19049;52.524;11.468;2022-11-20T06:16:40;9.87;;;6.60;;
32639;SDS011;19049;52.524;11.468;2022-11-20T06:19:05;10.63;;;7.20;;
32639;SDS011;19049;52.524;11.468;2022-11-20T06:21:31;8.30;;;5.87;;
32639;SDS011;19049;52.524;11.468;2022-11-20T06:23:56;10.77;;;6.57;;
32639;SDS011;19049;52.524;11.468;2022-11-20T06:26:23;12.60;;;7.40;;
32639;SDS011;19049;52.524;11.468;2022-11-20T06:28:50;9.63;;;6.73;;
32639;SDS011;19049;52.524;11.468;2022-11-20T06:31:17;10.17;;;7.13;;
32639;SDS011;19049;52.524;11.468;2022-11-20T06:33:44;11.83;;;7.53;;
32639;SDS011;19049;52.524;11.468;2022-11-20T06:36:11;14.70;;;9.30;;
32639;SDS011;19049;52.524;11.468;2022-11-20T06:38:38;13.90;;;8.43;;
32639;SDS011;19049;52.524;11.468;2022-11-20T06:41:05;14.17;;;9.30;;
32639;SDS011;19049;52.524;11.468;2022-11-20T06:43:32;13.13;;;8.40;;
32639;SDS011;19049;52.524;11.468;2022-11-20T06:45:58;10.30;;;6.93;;
32639;SDS011;19049;52.524;11.468;2022-11-20T06:48:25;13.07;;;8.57;;
32639;SDS011;19049;52.524;11.468;2022-11-20T06:50:52;13.00;;;8.40;;
32639;SDS011;19049;52.524;11.468;2022-11-20T06:53:17;13.17;;;8.30;;
32639;SDS011;19049;52.524;11.468;2022-11-20T06:55:43;10.97;;;7.17;;
32639;SDS011;19049;52.524;11.468;2022-11-20T06:58:10;13.13;;;7.80;;
32639;SDS011;19049;52.524;11.468;2022-11-20T07:00:37;11.87;;;7.50;;
32639;SDS011;19049;52.524;11.468;2022-11-20T07:03:03;11.03;;;6.83;;
32639;SDS011;19049;52.524;11.468;2022-11-20T07:05:29;12.33;;;7.63;;
32639;SDS011;19049;52.524;11.468;2022-11-20T07:07:55;9.77;;;6.37;;
32639;SDS011;19049;52.524;11.468;2022-11-20T07:10:21;10.43;;;6.67;;
32639;SDS011;19049;52.524;11.468;2022-11-20T07:12:51;12.23;;;7.83;;
32639;SDS011;19049;52.524;11.468;2022-11-20T07:15:18;11.93;;;7.93;;
32639;SDS011;19049;52.524;11.468;2022-11-20T07:17:45;12.57;;;8.23;;
32639;SDS011;19049;52.524;11.468;2022-11-20T07:20:11;13.30;;;8.70;;
32639;SDS011;19049;52.524;11.468;2022-11-20T07:22:37;16.83;;;9.73;;
32639;SDS011;19049;52.524;11.468;2022-11-20T07:25:03;14.43;;;8.93;;
32639;SDS011;19049;52.524;11.468;2022-11-20T07:27:30;12.77;;;7.20;;
32639;SDS011;19049;52.524;11.468;2022-11-20T07:29:55;14.40;;;7.83;;
32639;SDS011;19049;52.524;11.468;2022-11-20T07:32:21;12.87;;;8.23;;
32639;SDS011;19049;52.524;11.468;2022-11-20T07:34:47;11.67;;;8.10;;
32639;SDS011;19049;52.524;11.468;2022-11-20T07:37:13;16.13;;;9.37;;
32639;SDS011;19049;52.524;11.468;2022-11-20T07:39:40;14.60;;;8.80;;
32639;SDS011;19049;52.524;11.468;2022-11-20T07:42:06;14.30;;;8.67;;
32639;SDS011;19049;52.524;11.468;2022-11-20T07:44:32;18.30;;;10.20;;
32639;SDS011;19049;52.524;11.468;2022-11-20T07:46:57;16.37;;;9.87;;
32639;SDS011;19049;52.524;11.468;2022-11-20T07:49:23;13.37;;;8.87;;
32639;SDS011;19049;52.524;11.468;2022-11-20T07:51:52;12.93;;;8.03;;
32639;SDS011;19049;52.524;11.468;2022-11-20T07:54:18;12.80;;;8.43;;
32639;SDS011;19049;52.524;11.468;2022-11-20T07:56:45;18.63;;;10.57;;
32639;SDS011;19049;52.524;11.468;2022-11-20T07:59:11;12.93;;;7.90;;
32639;SDS011;19049;52.524;11.468;2022-11-20T08:01:37;13.70;;;8.40;;
32639;SDS011;19049;52.524;11.468;2022-11-20T08:04:03;15.20;;;8.63;;
32639;SDS011;19049;52.524;11.468;2022-11-20T08:06:29;14.07;;;8.77;;
32639;SDS011;19049;52.524;11.468;2022-11-20T08:08:55;12.17;;;8.20;;
32639;SDS011;19049;52.524;11.468;2022-11-20T08:11:21;13.03;;;8.63;;
32639;SDS011;19049;52.524;11.468;2022-11-20T08:14:05;10.90;;;6.87;;
32639;SDS011;19049;52.524;11.468;2022-11-20T08:16:36;17.73;;;10.57;;
32639;SDS011;19049;52.524;11.468;2022-11-20T08:19:02;18.70;;;11.57;;
32639;SDS011;19049;52.524;11.468;2022-11-20T08:21:29;15.93;;;10.33;;
32639;SDS011;19049;52.524;11.468;2022-11-20T08:23:56;19.43;;;11.87;;
32639;SDS011;19049;52.524;11.468;2022-11-20T08:26:22;16.43;;;9.50;;
32639;SDS011;19049;52.524;11.468;2022-11-20T08:28:49;17.13;;;10.43;;
32639;SDS011;19049;52.524;11.468;2022-11-20T08:31:17;16.83;;;10.40;;
32639;SDS011;19049;52.524;11.468;2022-11-20T08:33:43;16.27;;;10.43;;
32639;SDS011;19049;52.524;11.468;2022-11-20T08:36:09;19.10;;;10.53;;
32639;SDS011;19049;52.524;11.468;2022-11-20T08:38:34;14.73;;;9.70;;
32639;SDS011;19049;52.524;11.468;2022-11-20T08:41:00;16.53;;;10.10;;
32639;SDS011;19049;52.524;11.468;2022-11-20T08:43:47;13.07;;;9.03;;
32639;SDS011;19049;52.524;11.468;2022-11-20T08:46:14;15.53;;;9.93;;
32639;SDS011;19049;52.524;11.468;2022-11-20T08:48:40;16.27;;;10.63;;
32639;SDS011;19049;52.524;11.468;2022-11-20T08:51:05;15.60;;;9.83;;
32639;SDS011;19049;52.524;11.468;2022-11-20T08:53:31;18.40;;;10.87;;
32639;SDS011;19049;52.524;11.468;2022-11-20T08:55:57;15.07;;;10.23;;
32639;SDS011;19049;52.524;11.468;2022-11-20T08:58:23;17.13;;;9.97;;
32639;SDS011;19049;52.524;11.468;2022-11-20T09:00:49;13.77;;;8.53;;
32639;SDS011;19049;52.524;11.468;2022-11-20T09:03:15;15.17;;;9.67;;
32639;SDS011;19049;52.524;11.468;2022-11-20T09:05:40;15.73;;;9.80;;
32639;SDS011;19049;52.524;11.468;2022-11-20T09:08:07;16.17;;;9.73;;
32639;SDS011;19049;52.524;11.468;2022-11-20T09:10:33;17.67;;;10.53;;
32639;SDS011;19049;52.524;11.468;2022-11-20T09:12:59;15.10;;;9.27;;
32639;SDS011;19049;52.524;11.468;2022-11-20T09:15:25;13.73;;;9.47;;
32639;SDS011;19049;52.524;11.468;2022-11-20T09:17:54;16.90;;;9.50;;
32639;SDS011;19049;52.524;11.468;2022-11-20T09:20:22;14.27;;;8.87;;
32639;SDS011;19049;52.524;11.468;2022-11-20T09:22:48;15.87;;;10.00;;
32639;SDS011;19049;52.524;11.468;2022-11-20T09:25:13;17.43;;;11.93;;
32639;SDS011;19049;52.524;11.468;2022-11-20T09:27:39;17.23;;;10.17;;
32639;SDS011;19049;52.524;11.468;2022-11-20T09:30:08;16.40;;;9.43;;
32639;SDS011;19049;52.524;11.468;2022-11-20T09:32:34;16.97;;;9.93;;
32639;SDS011;19049;52.524;11.468;2022-11-20T09:35:03;13.53;;;8.83;;
32639;SDS011;19049;52.524;11.468;2022-11-20T09:37:29;12.57;;;8.63;;
32639;SDS011;19049;52.524;11.468;2022-11-20T09:39:55;12.90;;;8.47;;
32639;SDS011;19049;52.524;11.468;2022-11-20T09:45:12;13.60;;;8.70;;
32639;SDS011;19049;52.524;11.468;2022-11-20T09:50:45;13.80;;;9.13;;
32639;SDS011;19049;52.524;11.468;2022-11-20T09:56:10;11.60;;;7.67;;
32639;SDS011;19049;52.524;11.468;2022-11-20T09:58:40;14.67;;;9.07;;
32639;SDS011;19049;52.524;11.468;2022-11-20T10:01:17;13.47;;;8.90;;
32639;SDS011;19049;52.524;11.468;2022-11-20T10:11:46;14.47;;;9.50;;
32639;SDS011;19049;52.524;11.468;2022-11-20T10:19:51;11.37;;;7.23;;
32639;SDS011;19049;52.524;11.468;2022-11-20T10:28:21;11.00;;;7.43;;
32639;SDS011;19049;52.524;11.468;2022-11-20T10:30:57;9.30;;;6.97;;
32639;SDS011;19049;52.524;11.468;2022-11-20T10:33:29;10.27;;;7.00;;
32639;SDS011;19049;52.524;11.468;2022-11-20T10:38:43;11.77;;;7.83;;
32639;SDS011;19049;52.524;11.468;2022-11-20T10:41:36;9.87;;;6.90;;
32639;SDS011;19049;52.524;11.468;2022-11-20T10:47:01;9.17;;;6.73;;
32639;SDS011;19049;52.524;11.468;2022-11-20T10:49:28;10.17;;;7.23;;
32639;SDS011;19049;52.524;11.468;2022-11-20T10:52:02;9.10;;;6.77;;
32639;SDS011;19049;52.524;11.468;2022-11-20T10:54:51;8.27;;;6.20;;
32639;SDS011;19049;52.524;11.468;2022-11-20T11:00:09;9.10;;;6.60;;
32639;SDS011;19049;52.524;11.468;2022-11-20T11:02:41;10.43;;;7.63;;
32639;SDS011;19049;52.524;11.468;2022-11-20T11:07:41;11.07;;;7.43;;
32639;SDS011;19049;52.524;11.468;2022-11-20T11:13:07;11.47;;;7.80;;
32639;SDS011;19049;52.524;11.468;2022-11-20T11:15:43;9.27;;;7.03;;
32639;SDS011;19049;52.524;11.468;2022-11-20T11:18:10;19.57;;;11.73;;
32639;SDS011;19049;52.524;11.468;2022-11-20T11:20:36;19.87;;;13.00;;
32639;SDS011;19049;52.524;11.468;2022-11-20T11:23:02;14.63;;;10.67;;
32639;SDS011;19049;52.524;11.468;2022-11-20T11:25:33;19.40;;;13.33;;
32639;SDS011;19049;52.524;11.468;2022-11-20T11:28:02;16.93;;;11.50;;
32639;SDS011;19049;52.524;11.468;2022-11-20T11:30:51;13.33;;;9.40;;
32639;SDS011;19049;52.524;11.468;2022-11-20T11:35:53;10.93;;;7.90;;
32639;SDS011;19049;52.524;11.468;2022-11-20T11:38:28;10.27;;;7.17;;
32639;SDS011;19049;52.524;11.468;2022-11-20T11:41:00;11.03;;;6.97;;
32639;SDS011;19049;52.524;11.468;2022-11-20T11:43:27;9.33;;;6.83;;
32639;SDS011;19049;52.524;11.468;2022-11-20T11:51:39;6.77;;;5.30;;
32639;SDS011;19049;52.524;11.468;2022-11-20T11:54:17;8.43;;;6.00;;
32639;SDS011;19049;52.524;11.468;2022-11-20T11:56:48;9.77;;;6.87;;
32639;SDS011;19049;52.524;11.468;2022-11-20T11:59:26;7.93;;;6.30;;
32639;SDS011;19049;52.524;11.468;2022-11-20T12:01:59;8.93;;;5.60;;
32639;SDS011;19049;52.524;11.468;2022-11-20T12:07:13;8.43;;;5.90;;
32639;SDS011;19049;52.524;11.468;2022-11-20T12:09:47;10.07;;;6.57;;
32639;SDS011;19049;52.524;11.468;2022-11-20T12:12:20;9.77;;;6.70;;
32639;SDS011;19049;52.524;11.468;2022-11-20T12:14:52;8.70;;;6.03;;
32639;SDS011;19049;52.524;11.468;2022-11-20T12:17:20;8.20;;;6.10;;
32639;SDS011;19049;52.524;11.468;2022-11-20T12:19:46;7.53;;;5.33;;
32639;SDS011;19049;52.524;11.468;2022-11-20T12:22:26;7.83;;;5.00;;
32639;SDS011;19049;52.524;11.468;2022-11-20T12:25:22;9.80;;;6.37;;
32639;SDS011;19049;52.524;11.468;2022-11-20T12:28:02;8.90;;;6.37;;
32639;SDS011;19049;52.524;11.468;2022-11-20T12:30:32;9.07;;;6.97;;
32639;SDS011;19049;52.524;11.468;2022-11-20T12:36:09;8.77;;;6.37;;
32639;SDS011;19049;52.524;11.468;2022-11-20T12:41:36;8.07;;;5.70;;
32639;SDS011;19049;52.524;11.468;2022-11-20T13:07:10;9.67;;;6.80;;
32639;SDS011;19049;52.524;11.468;2022-11-20T13:09:44;10.67;;;6.37;;
32639;SDS011;19049;52.524;11.468;2022-11-20T13:18:01;7.77;;;5.93;;
32639;SDS011;19049;52.524;11.468;2022-11-20T13:20:28;7.60;;;5.70;;
32639;SDS011;19049;52.524;11.468;2022-11-20T13:22:55;9.80;;;7.23;;
32639;SDS011;19049;52.524;11.468;2022-11-20T13:25:31;9.13;;;6.90;;
32639;SDS011;19049;52.524;11.468;2022-11-20T13:28:26;8.50;;;6.67;;
32639;SDS011;19049;52.524;11.468;2022-11-20T13:30:48;11.17;;;8.43;;
32639;SDS011;19049;52.524;11.468;2022-11-20T13:36:19;9.77;;;7.03;;
32639;SDS011;19049;52.524;11.468;2022-11-20T13:38:54;10.27;;;7.17;;
32639;SDS011;19049;52.524;11.468;2022-11-20T13:41:25;15.23;;;10.37;;
32639;SDS011;19049;52.524;11.468;2022-11-20T13:49:15;16.80;;;9.90;;
32639;SDS011;19049;52.524;11.468;2022-11-20T13:51:58;14.07;;;8.80;;
32639;SDS011;19049;52.524;11.468;2022-11-20T14:00:18;10.03;;;7.17;;
32639;SDS011;19049;52.524;11.468;2022-11-20T14:02:51;9.37;;;6.73;;
32639;SDS011;19049;52.524;11.468;2022-11-20T14:06:00;8.30;;;6.47;;
32639;SDS011;19049;52.524;11.468;2022-11-20T14:08:39;8.07;;;6.43;;
32639;SDS011;19049;52.524;11.468;2022-11-20T14:11:19;11.90;;;7.57;;
32639;SDS011;19049;52.524;11.468;2022-11-20T14:16:30;13.13;;;8.17;;
32639;SDS011;19049;52.524;11.468;2022-11-20T14:18:58;12.20;;;8.17;;
32639;SDS011;19049;52.524;11.468;2022-11-20T14:21:54;16.17;;;10.13;;
32639;SDS011;19049;52.524;11.468;2022-11-20T14:24:31;14.27;;;10.07;;
32639;SDS011;19049;52.524;11.468;2022-11-20T14:26:57;11.63;;;8.43;;
32639;SDS011;19049;52.524;11.468;2022-11-20T14:29:27;11.20;;;8.20;;
32639;SDS011;19049;52.524;11.468;2022-11-20T14:31:55;10.63;;;7.47;;
32639;SDS011;19049;52.524;11.468;2022-11-20T14:34:23;10.03;;;6.70;;
32639;SDS011;19049;52.524;11.468;2022-11-20T14:36:52;11.80;;;7.50;;
32639;SDS011;19049;52.524;11.468;2022-11-20T14:39:30;11.60;;;7.40;;
32639;SDS011;19049;52.524;11.468;2022-11-20T14:42:01;10.93;;;7.53;;
32639;SDS011;19049;52.524;11.468;2022-11-20T14:44:32;12.13;;;8.33;;
32639;SDS011;19049;52.524;11.468;2022-11-20T14:47:02;11.33;;;7.23;;
32639;SDS011;19049;52.524;11.468;2022-11-20T14:49:29;13.13;;;8.50;;
32639;SDS011;19049;52.524;11.468;2022-11-20T14:51:59;14.53;;;10.17;;
32639;SDS011;19049;52.524;11.468;2022-11-20T14:54:45;20.50;;;12.63;;
32639;SDS011;19049;52.524;11.468;2022-11-20T14:57:53;14.30;;;8.47;;
32639;SDS011;19049;52.524;11.468;2022-11-20T15:02:40;11.10;;;7.07;;
32639;SDS011;19049;52.524;11.468;2022-11-20T15:05:07;8.43;;;6.03;;
32639;SDS011;19049;52.524;11.468;2022-11-20T15:07:34;8.87;;;6.73;;
32639;SDS011;19049;52.524;11.468;2022-11-20T15:12:35;7.87;;;5.40;;
32639;SDS011;19049;52.524;11.468;2022-11-20T15:15:17;9.30;;;6.40;;
32639;SDS011;19049;52.524;11.468;2022-11-20T15:17:52;7.53;;;5.20;;
32639;SDS011;19049;52.524;11.468;2022-11-20T15:20:19;8.50;;;6.03;;
32639;SDS011;19049;52.524;11.468;2022-11-20T15:22:48;8.20;;;5.70;;
32639;SDS011;19049;52.524;11.468;2022-11-20T15:25:14;6.47;;;5.20;;
32639;SDS011;19049;52.524;11.468;2022-11-20T15:27:42;8.03;;;5.43;;
32639;SDS011;19049;52.524;11.468;2022-11-20T15:30:13;9.53;;;6.73;;
32639;SDS011;19049;52.524;11.468;2022-11-20T15:32:43;8.50;;;6.70;;
32639;SDS011;19049;52.524;11.468;2022-11-20T15:35:10;11.87;;;7.37;;
32639;SDS011;19049;52.524;11.468;2022-11-20T15:37:39;10.60;;;7.33;;
32639;SDS011;19049;52.524;11.468;2022-11-20T15:40:05;11.13;;;7.37;;
32639;SDS011;19049;52.524;11.468;2022-11-20T15:42:32;13.97;;;8.87;;
32639;SDS011;19049;52.524;11.468;2022-11-20T15:44:58;12.67;;;8.90;;
32639;SDS011;19049;52.524;11.468;2022-11-20T15:47:31;11.80;;;8.70;;
32639;SDS011;19049;52.524;11.468;2022-11-20T15:49:58;13.10;;;9.10;;
32639;SDS011;19049;52.524;11.468;2022-11-20T15:52:24;16.10;;;10.13;;
32639;SDS011;19049;52.524;11.468;2022-11-20T15:54:49;14.73;;;10.57;;
32639;SDS011;19049;52.524;11.468;2022-11-20T15:57:15;13.43;;;9.33;;
32639;SDS011;19049;52.524;11.468;2022-11-20T15:59:41;13.73;;;8.87;;
32639;SDS011;19049;52.524;11.468;2022-11-20T16:02:12;13.37;;;9.57;;
32639;SDS011;19049;52.524;11.468;2022-11-20T16:04:39;12.17;;;7.43;;
32639;SDS011;19049;52.524;11.468;2022-11-20T16:07:05;9.13;;;6.87;;
32639;SDS011;19049;52.524;11.468;2022-11-20T16:09:31;12.53;;;9.30;;
32639;SDS011;19049;52.524;11.468;2022-11-20T16:11:57;10.53;;;7.00;;
32639;SDS011;19049;52.524;11.468;2022-11-20T16:14:24;8.00;;;5.50;;
32639;SDS011;19049;52.524;11.468;2022-11-20T16:17:08;5.53;;;4.63;;
32639;SDS011;19049;52.524;11.468;2022-11-20T16:19:34;5.50;;;4.17;;
32639;SDS011;19049;52.524;11.468;2022-11-20T16:22:00;4.90;;;4.27;;
32639;SDS011;19049;52.524;11.468;2022-11-20T16:24:26;6.00;;;4.80;;
32639;SDS011;19049;52.524;11.468;2022-11-20T16:26:54;6.70;;;4.97;;
32639;SDS011;19049;52.524;11.468;2022-11-20T16:29:21;7.50;;;5.60;;
32639;SDS011;19049;52.524;11.468;2022-11-20T16:31:46;8.43;;;5.40;;
32639;SDS011;19049;52.524;11.468;2022-11-20T16:34:12;6.30;;;4.77;;